sensor_id;sensor_type;location;lat;lon;timestamp;temperature;humidity
16485;DHT22;8353;47.856;12.344;2022-07-29T00:01:32;23.50;99.90
16485;DHT22;8353;47.856;12.344;2022-07-29T00:04:03;23.60;99.90
16485;DHT22;8353;47.856;12.344;2022-07-29T00:06:37;23.40;99.90
16485;DHT22;8353;47.856;12.344;2022-07-29T00:09:08;23.20;99.90
16485;DHT22;8353;47.856;12.344;2022-07-29T00:11:39;23.10;99.90
16485;DHT22;8353;47.856;12.344;2022-07-29T00:14:11;22.90;99.90
16485;DHT22;8353;47.856;12.344;2022-07-29T00:16:47;22.80;99.90
16485;DHT22;8353;47.856;12.344;2022-07-29T00:19:18;22.70;99.90
16485;DHT22;8353;47.856;12.344;2022-07-29T00:21:49;22.70;99.90
16485;DHT22;8353;47.856;12.344;2022-07-29T00:24:20;22.90;99.90
16485;DHT22;8353;47.856;12.344;2022-07-29T00:26:55;23.00;99.90
16485;DHT22;8353;47.856;12.344;2022-07-29T00:29:36;23.10;99.90
16485;DHT22;8353;47.856;12.344;2022-07-29T00:32:07;23.10;99.90
16485;DHT22;8353;47.856;12.344;2022-07-29T00:34:38;23.20;99.90
16485;DHT22;8353;47.856;12.344;2022-07-29T00:37:26;23.20;99.90
16485;DHT22;8353;47.856;12.344;2022-07-29T00:40:00;23.20;99.90
16485;DHT22;8353;47.856;12.344;2022-07-29T00:42:44;23.30;99.90
16485;DHT22;8353;47.856;12.344;2022-07-29T00:45:17;23.20;99.90
16485;DHT22;8353;47.856;12.344;2022-07-29T00:47:47;23.30;99.90
16485;DHT22;8353;47.856;12.344;2022-07-29T00:50:18;23.30;99.90
16485;DHT22;8353;47.856;12.344;2022-07-29T00:52:50;23.10;99.90
16485;DHT22;8353;47.856;12.344;2022-07-29T00:55:22;23.20;99.90
16485;DHT22;8353;47.856;12.344;2022-07-29T00:57:54;23.20;99.90
16485;DHT22;8353;47.856;12.344;2022-07-29T01:00:30;23.10;99.90
16485;DHT22;8353;47.856;12.344;2022-07-29T01:03:03;23.10;99.90
16485;DHT22;8353;47.856;12.344;2022-07-29T01:05:39;22.80;99.90
16485;DHT22;8353;47.856;12.344;2022-07-29T01:08:15;22.60;99.90
16485;DHT22;8353;47.856;12.344;2022-07-29T01:11:02;22.50;99.90
16485;DHT22;8353;47.856;12.344;2022-07-29T01:13:34;22.50;99.90
16485;DHT22;8353;47.856;12.344;2022-07-29T01:16:10;22.60;99.90
16485;DHT22;8353;47.856;12.344;2022-07-29T01:18:47;22.60;99.90
16485;DHT22;8353;47.856;12.344;2022-07-29T01:21:44;22.70;99.90
16485;DHT22;8353;47.856;12.344;2022-07-29T01:24:32;22.50;99.90
16485;DHT22;8353;47.856;12.344;2022-07-29T01:27:13;22.50;99.90
16485;DHT22;8353;47.856;12.344;2022-07-29T01:29:48;22.50;99.90
16485;DHT22;8353;47.856;12.344;2022-07-29T01:32:24;22.50;99.90
16485;DHT22;8353;47.856;12.344;2022-07-29T01:34:58;22.60;99.90
16485;DHT22;8353;47.856;12.344;2022-07-29T01:37:38;22.60;99.90
16485;DHT22;8353;47.856;12.344;2022-07-29T01:40:14;22.70;99.90
16485;DHT22;8353;47.856;12.344;2022-07-29T01:42:50;22.70;99.90
16485;DHT22;8353;47.856;12.344;2022-07-29T01:45:28;22.70;99.90
16485;DHT22;8353;47.856;12.344;2022-07-29T01:48:04;22.70;99.90
16485;DHT22;8353;47.856;12.344;2022-07-29T01:50:42;22.60;99.90
16485;DHT22;8353;47.856;12.344;2022-07-29T01:53:25;22.40;99.90
16485;DHT22;8353;47.856;12.344;2022-07-29T01:56:00;22.60;99.90
16485;DHT22;8353;47.856;12.344;2022-07-29T01:58:33;22.60;99.90
16485;DHT22;8353;47.856;12.344;2022-07-29T02:01:06;22.50;99.90
16485;DHT22;8353;47.856;12.344;2022-07-29T02:03:39;22.50;99.90
16485;DHT22;8353;47.856;12.344;2022-07-29T02:06:17;22.50;99.90
16485;DHT22;8353;47.856;12.344;2022-07-29T02:08:51;22.50;99.90
16485;DHT22;8353;47.856;12.344;2022-07-29T02:11:22;22.60;99.90
16485;DHT22;8353;47.856;12.344;2022-07-29T02:13:55;22.50;99.90
16485;DHT22;8353;47.856;12.344;2022-07-29T02:16:29;22.60;99.90
16485;DHT22;8353;47.856;12.344;2022-07-29T02:19:04;22.80;99.90
16485;DHT22;8353;47.856;12.344;2022-07-29T02:21:37;22.90;99.90
16485;DHT22;8353;47.856;12.344;2022-07-29T02:24:11;23.00;99.90
16485;DHT22;8353;47.856;12.344;2022-07-29T02:26:43;23.00;99.90
16485;DHT22;8353;47.856;12.344;2022-07-29T02:29:16;22.90;99.90
16485;DHT22;8353;47.856;12.344;2022-07-29T02:31:50;23.00;99.90
16485;DHT22;8353;47.856;12.344;2022-07-29T02:34:22;23.00;99.90
16485;DHT22;8353;47.856;12.344;2022-07-29T02:36:54;22.80;99.90
16485;DHT22;8353;47.856;12.344;2022-07-29T02:39:27;22.60;99.90
16485;DHT22;8353;47.856;12.344;2022-07-29T02:42:02;22.50;99.90
16485;DHT22;8353;47.856;12.344;2022-07-29T02:44:34;22.60;99.90
16485;DHT22;8353;47.856;12.344;2022-07-29T02:47:13;22.50;99.90
16485;DHT22;8353;47.856;12.344;2022-07-29T02:49:50;22.70;99.90
16485;DHT22;8353;47.856;12.344;2022-07-29T02:52:26;22.60;99.90
16485;DHT22;8353;47.856;12.344;2022-07-29T02:55:00;22.50;99.90
16485;DHT22;8353;47.856;12.344;2022-07-29T02:57:33;22.40;99.90
16485;DHT22;8353;47.856;12.344;2022-07-29T03:00:07;22.30;99.90
16485;DHT22;8353;47.856;12.344;2022-07-29T03:02:43;22.20;99.90
16485;DHT22;8353;47.856;12.344;2022-07-29T03:05:18;21.90;99.90
16485;DHT22;8353;47.856;12.344;2022-07-29T03:07:54;21.90;99.90
16485;DHT22;8353;47.856;12.344;2022-07-29T03:10:34;22.00;99.90
16485;DHT22;8353;47.856;12.344;2022-07-29T03:13:07;21.90;99.90
16485;DHT22;8353;47.856;12.344;2022-07-29T03:15:38;22.00;99.90
16485;DHT22;8353;47.856;12.344;2022-07-29T03:18:11;21.90;99.90
16485;DHT22;8353;47.856;12.344;2022-07-29T03:20:42;22.00;99.90
16485;DHT22;8353;47.856;12.344;2022-07-29T03:23:18;22.20;99.90
16485;DHT22;8353;47.856;12.344;2022-07-29T03:25:50;22.20;99.90
16485;DHT22;8353;47.856;12.344;2022-07-29T03:28:20;22.20;99.90
16485;DHT22;8353;47.856;12.344;2022-07-29T03:30:52;22.20;99.90
16485;DHT22;8353;47.856;12.344;2022-07-29T03:33:24;22.20;99.90
16485;DHT22;8353;47.856;12.344;2022-07-29T03:35:55;22.10;99.90
16485;DHT22;8353;47.856;12.344;2022-07-29T03:38:26;22.20;99.90
16485;DHT22;8353;47.856;12.344;2022-07-29T03:41:01;22.30;99.90
16485;DHT22;8353;47.856;12.344;2022-07-29T03:43:37;22.40;99.90
16485;DHT22;8353;47.856;12.344;2022-07-29T03:46:10;22.50;99.90
16485;DHT22;8353;47.856;12.344;2022-07-29T03:48:46;22.30;99.90
16485;DHT22;8353;47.856;12.344;2022-07-29T03:51:18;22.20;99.90
16485;DHT22;8353;47.856;12.344;2022-07-29T03:53:48;22.20;99.90
16485;DHT22;8353;47.856;12.344;2022-07-29T03:56:21;22.00;99.90
16485;DHT22;8353;47.856;12.344;2022-07-29T03:58:52;21.80;99.90
16485;DHT22;8353;47.856;12.344;2022-07-29T04:01:24;21.80;99.90
16485;DHT22;8353;47.856;12.344;2022-07-29T04:03:56;21.90;99.90
16485;DHT22;8353;47.856;12.344;2022-07-29T04:06:27;21.90;99.90
16485;DHT22;8353;47.856;12.344;2022-07-29T04:08:59;22.00;99.90
16485;DHT22;8353;47.856;12.344;2022-07-29T04:11:29;21.80;99.90
16485;DHT22;8353;47.856;12.344;2022-07-29T04:13:59;21.90;99.90
16485;DHT22;8353;47.856;12.344;2022-07-29T04:16:31;22.00;99.90
16485;DHT22;8353;47.856;12.344;2022-07-29T04:19:03;21.90;99.90
16485;DHT22;8353;47.856;12.344;2022-07-29T04:21:37;22.00;99.90
16485;DHT22;8353;47.856;12.344;2022-07-29T04:24:08;22.00;99.90
16485;DHT22;8353;47.856;12.344;2022-07-29T04:26:38;21.90;99.90
16485;DHT22;8353;47.856;12.344;2022-07-29T04:29:09;21.90;99.90
16485;DHT22;8353;47.856;12.344;2022-07-29T04:31:41;22.00;99.90
16485;DHT22;8353;47.856;12.344;2022-07-29T04:34:13;22.20;99.90
16485;DHT22;8353;47.856;12.344;2022-07-29T04:36:44;22.30;99.90
16485;DHT22;8353;47.856;12.344;2022-07-29T04:39:19;22.40;99.90
16485;DHT22;8353;47.856;12.344;2022-07-29T04:41:49;22.50;99.90
16485;DHT22;8353;47.856;12.344;2022-07-29T04:44:20;22.50;99.90
16485;DHT22;8353;47.856;12.344;2022-07-29T04:46:50;22.60;99.90
16485;DHT22;8353;47.856;12.344;2022-07-29T04:49:23;22.70;99.90
16485;DHT22;8353;47.856;12.344;2022-07-29T04:51:53;22.80;99.90
16485;DHT22;8353;47.856;12.344;2022-07-29T04:54:24;22.50;99.90
16485;DHT22;8353;47.856;12.344;2022-07-29T04:56:54;22.50;99.90
16485;DHT22;8353;47.856;12.344;2022-07-29T04:59:25;22.30;99.90
16485;DHT22;8353;47.856;12.344;2022-07-29T05:01:55;22.40;99.90
16485;DHT22;8353;47.856;12.344;2022-07-29T05:04:28;22.50;99.90
16485;DHT22;8353;47.856;12.344;2022-07-29T05:06:58;22.50;99.90
16485;DHT22;8353;47.856;12.344;2022-07-29T05:09:29;22.60;99.90
16485;DHT22;8353;47.856;12.344;2022-07-29T05:12:01;22.70;99.90
16485;DHT22;8353;47.856;12.344;2022-07-29T05:14:34;22.50;99.90
16485;DHT22;8353;47.856;12.344;2022-07-29T05:17:05;22.40;99.90
16485;DHT22;8353;47.856;12.344;2022-07-29T05:19:37;22.60;99.90
16485;DHT22;8353;47.856;12.344;2022-07-29T05:22:08;22.80;99.90
16485;DHT22;8353;47.856;12.344;2022-07-29T05:24:38;22.70;99.90
16485;DHT22;8353;47.856;12.344;2022-07-29T05:27:10;22.50;99.90
16485;DHT22;8353;47.856;12.344;2022-07-29T05:29:40;22.60;99.90
16485;DHT22;8353;47.856;12.344;2022-07-29T05:32:14;22.70;99.90
16485;DHT22;8353;47.856;12.344;2022-07-29T05:34:46;22.60;99.90
16485;DHT22;8353;47.856;12.344;2022-07-29T05:37:17;22.60;99.90
16485;DHT22;8353;47.856;12.344;2022-07-29T05:39:47;22.50;99.90
16485;DHT22;8353;47.856;12.344;2022-07-29T05:42:18;22.50;99.90
16485;DHT22;8353;47.856;12.344;2022-07-29T05:44:48;22.50;99.90
16485;DHT22;8353;47.856;12.344;2022-07-29T05:47:19;22.50;99.90
16485;DHT22;8353;47.856;12.344;2022-07-29T05:49:53;22.30;99.90
16485;DHT22;8353;47.856;12.344;2022-07-29T05:52:25;22.30;99.90
16485;DHT22;8353;47.856;12.344;2022-07-29T05:54:55;22.40;99.90
16485;DHT22;8353;47.856;12.344;2022-07-29T05:57:26;22.50;99.90
16485;DHT22;8353;47.856;12.344;2022-07-29T05:59:57;22.50;99.90
16485;DHT22;8353;47.856;12.344;2022-07-29T06:02:27;22.60;99.90
16485;DHT22;8353;47.856;12.344;2022-07-29T06:05:00;22.80;99.90
16485;DHT22;8353;47.856;12.344;2022-07-29T06:07:31;23.00;99.90
16485;DHT22;8353;47.856;12.344;2022-07-29T06:10:02;23.10;99.90
16485;DHT22;8353;47.856;12.344;2022-07-29T06:12:33;23.20;99.90
16485;DHT22;8353;47.856;12.344;2022-07-29T06:15:05;23.30;99.90
16485;DHT22;8353;47.856;12.344;2022-07-29T06:17:36;23.50;99.90
16485;DHT22;8353;47.856;12.344;2022-07-29T06:20:10;23.60;99.90
16485;DHT22;8353;47.856;12.344;2022-07-29T06:22:41;23.60;99.90
16485;DHT22;8353;47.856;12.344;2022-07-29T06:25:11;23.50;99.90
16485;DHT22;8353;47.856;12.344;2022-07-29T06:27:42;23.60;99.90
16485;DHT22;8353;47.856;12.344;2022-07-29T06:30:13;23.70;99.90
16485;DHT22;8353;47.856;12.344;2022-07-29T06:32:43;23.70;99.90
16485;DHT22;8353;47.856;12.344;2022-07-29T06:35:15;23.70;99.90
16485;DHT22;8353;47.856;12.344;2022-07-29T06:37:46;23.90;99.90
16485;DHT22;8353;47.856;12.344;2022-07-29T06:40:17;24.00;99.90
16485;DHT22;8353;47.856;12.344;2022-07-29T06:43:05;24.00;99.90
16485;DHT22;8353;47.856;12.344;2022-07-29T06:45:36;24.20;99.90
16485;DHT22;8353;47.856;12.344;2022-07-29T06:48:10;24.30;99.90
16485;DHT22;8353;47.856;12.344;2022-07-29T06:50:42;24.40;99.90
16485;DHT22;8353;47.856;12.344;2022-07-29T06:53:12;24.60;99.90
16485;DHT22;8353;47.856;12.344;2022-07-29T06:55:43;24.70;99.90
16485;DHT22;8353;47.856;12.344;2022-07-29T06:58:14;24.90;99.90
16485;DHT22;8353;47.856;12.344;2022-07-29T07:00:45;25.00;99.90
16485;DHT22;8353;47.856;12.344;2022-07-29T07:03:15;25.10;99.90
16485;DHT22;8353;47.856;12.344;2022-07-29T07:05:47;25.30;99.90
16485;DHT22;8353;47.856;12.344;2022-07-29T07:08:18;25.60;99.90
16485;DHT22;8353;47.856;12.344;2022-07-29T07:10:49;25.80;99.90
16485;DHT22;8353;47.856;12.344;2022-07-29T07:13:20;26.00;99.90
16485;DHT22;8353;47.856;12.344;2022-07-29T07:15:51;26.20;99.90
16485;DHT22;8353;47.856;12.344;2022-07-29T07:18:22;25.90;99.90
16485;DHT22;8353;47.856;12.344;2022-07-29T07:20:54;26.00;99.90
16485;DHT22;8353;47.856;12.344;2022-07-29T07:23:26;25.80;99.90
16485;DHT22;8353;47.856;12.344;2022-07-29T07:25:56;26.00;99.90
16485;DHT22;8353;47.856;12.344;2022-07-29T07:28:27;26.10;99.90
16485;DHT22;8353;47.856;12.344;2022-07-29T07:30:58;26.10;99.90
16485;DHT22;8353;47.856;12.344;2022-07-29T07:33:29;26.20;99.90
16485;DHT22;8353;47.856;12.344;2022-07-29T07:36:16;26.20;99.90
16485;DHT22;8353;47.856;12.344;2022-07-29T07:38:47;26.20;99.90
16485;DHT22;8353;47.856;12.344;2022-07-29T07:41:18;26.20;99.90
16485;DHT22;8353;47.856;12.344;2022-07-29T07:43:49;26.40;99.90
16485;DHT22;8353;47.856;12.344;2022-07-29T07:46:19;26.40;99.90
16485;DHT22;8353;47.856;12.344;2022-07-29T07:48:49;26.50;99.90
16485;DHT22;8353;47.856;12.344;2022-07-29T07:51:23;26.60;99.90
16485;DHT22;8353;47.856;12.344;2022-07-29T07:53:58;26.60;99.90
16485;DHT22;8353;47.856;12.344;2022-07-29T07:56:30;26.20;99.90
16485;DHT22;8353;47.856;12.344;2022-07-29T07:59:00;26.50;99.90
16485;DHT22;8353;47.856;12.344;2022-07-29T08:01:31;26.60;99.90
16485;DHT22;8353;47.856;12.344;2022-07-29T08:04:02;26.90;99.90
16485;DHT22;8353;47.856;12.344;2022-07-29T08:06:35;27.10;99.90
16485;DHT22;8353;47.856;12.344;2022-07-29T08:09:07;27.20;99.90
16485;DHT22;8353;47.856;12.344;2022-07-29T08:11:38;27.00;99.90
16485;DHT22;8353;47.856;12.344;2022-07-29T08:14:09;26.80;99.90
16485;DHT22;8353;47.856;12.344;2022-07-29T08:16:40;27.10;99.90
16485;DHT22;8353;47.856;12.344;2022-07-29T08:19:11;27.10;99.90
16485;DHT22;8353;47.856;12.344;2022-07-29T08:21:43;27.20;99.90
16485;DHT22;8353;47.856;12.344;2022-07-29T08:24:18;27.70;99.90
16485;DHT22;8353;47.856;12.344;2022-07-29T08:27:06;27.50;99.90
16485;DHT22;8353;47.856;12.344;2022-07-29T08:29:37;27.90;99.90
16485;DHT22;8353;47.856;12.344;2022-07-29T08:32:08;27.60;99.90
16485;DHT22;8353;47.856;12.344;2022-07-29T08:34:39;27.60;99.90
16485;DHT22;8353;47.856;12.344;2022-07-29T08:37:11;27.60;99.90
16485;DHT22;8353;47.856;12.344;2022-07-29T08:39:43;27.60;99.90
16485;DHT22;8353;47.856;12.344;2022-07-29T08:42:15;27.80;99.90
16485;DHT22;8353;47.856;12.344;2022-07-29T08:44:46;28.10;99.90
16485;DHT22;8353;47.856;12.344;2022-07-29T08:47:16;28.00;99.90
16485;DHT22;8353;47.856;12.344;2022-07-29T08:49:47;28.20;99.90
16485;DHT22;8353;47.856;12.344;2022-07-29T08:52:20;28.70;99.90
16485;DHT22;8353;47.856;12.344;2022-07-29T08:54:52;28.90;99.90
16485;DHT22;8353;47.856;12.344;2022-07-29T08:57:24;29.20;99.90
16485;DHT22;8353;47.856;12.344;2022-07-29T08:59:57;29.60;99.90
16485;DHT22;8353;47.856;12.344;2022-07-29T09:02:35;29.80;99.90
16485;DHT22;8353;47.856;12.344;2022-07-29T09:05:07;30.00;99.90
16485;DHT22;8353;47.856;12.344;2022-07-29T09:07:39;30.00;99.90
16485;DHT22;8353;47.856;12.344;2022-07-29T09:10:11;30.20;99.90
16485;DHT22;8353;47.856;12.344;2022-07-29T09:12:42;30.50;99.90
16485;DHT22;8353;47.856;12.344;2022-07-29T09:15:12;30.60;99.90
16485;DHT22;8353;47.856;12.344;2022-07-29T09:17:49;30.30;99.90
16485;DHT22;8353;47.856;12.344;2022-07-29T09:20:21;30.40;99.90
16485;DHT22;8353;47.856;12.344;2022-07-29T09:22:53;30.50;99.90
16485;DHT22;8353;47.856;12.344;2022-07-29T09:25:34;30.60;99.90
16485;DHT22;8353;47.856;12.344;2022-07-29T09:28:06;30.50;99.90
16485;DHT22;8353;47.856;12.344;2022-07-29T09:30:50;30.60;99.90
16485;DHT22;8353;47.856;12.344;2022-07-29T09:33:21;30.60;99.90
16485;DHT22;8353;47.856;12.344;2022-07-29T09:35:59;30.60;99.90
16485;DHT22;8353;47.856;12.344;2022-07-29T09:38:32;30.50;99.90
16485;DHT22;8353;47.856;12.344;2022-07-29T09:41:04;30.10;99.90
16485;DHT22;8353;47.856;12.344;2022-07-29T09:43:37;29.60;99.90
16485;DHT22;8353;47.856;12.344;2022-07-29T09:46:10;29.70;99.90
16485;DHT22;8353;47.856;12.344;2022-07-29T09:48:41;30.10;99.90
16485;DHT22;8353;47.856;12.344;2022-07-29T09:51:19;30.20;99.90
16485;DHT22;8353;47.856;12.344;2022-07-29T09:53:51;30.50;99.90
16485;DHT22;8353;47.856;12.344;2022-07-29T09:56:39;30.80;99.90
16485;DHT22;8353;47.856;12.344;2022-07-29T09:59:10;30.50;99.90
16485;DHT22;8353;47.856;12.344;2022-07-29T10:01:42;30.80;99.90
16485;DHT22;8353;47.856;12.344;2022-07-29T10:04:12;31.10;99.90
16485;DHT22;8353;47.856;12.344;2022-07-29T10:06:55;31.30;99.90
16485;DHT22;8353;47.856;12.344;2022-07-29T10:09:28;31.40;99.90
16485;DHT22;8353;47.856;12.344;2022-07-29T10:12:10;30.80;99.70
16485;DHT22;8353;47.856;12.344;2022-07-29T10:14:44;30.80;99.90
16485;DHT22;8353;47.856;12.344;2022-07-29T10:17:16;30.20;99.90
16485;DHT22;8353;47.856;12.344;2022-07-29T10:19:48;30.60;99.90
16485;DHT22;8353;47.856;12.344;2022-07-29T10:22:19;31.10;99.90
16485;DHT22;8353;47.856;12.344;2022-07-29T10:24:51;31.00;99.70
16485;DHT22;8353;47.856;12.344;2022-07-29T10:27:22;31.10;99.60
16485;DHT22;8353;47.856;12.344;2022-07-29T10:29:54;30.90;98.70
16485;DHT22;8353;47.856;12.344;2022-07-29T10:32:38;31.30;97.90
16485;DHT22;8353;47.856;12.344;2022-07-29T10:35:19;31.30;99.90
16485;DHT22;8353;47.856;12.344;2022-07-29T10:38:21;31.70;99.90
16485;DHT22;8353;47.856;12.344;2022-07-29T10:41:09;30.90;96.50
16485;DHT22;8353;47.856;12.344;2022-07-29T10:44:00;30.60;99.90
16485;DHT22;8353;47.856;12.344;2022-07-29T10:46:35;31.30;99.00
16485;DHT22;8353;47.856;12.344;2022-07-29T10:49:08;31.60;99.20
16485;DHT22;8353;47.856;12.344;2022-07-29T10:52:00;32.00;99.60
16485;DHT22;8353;47.856;12.344;2022-07-29T10:54:53;32.10;97.50
16485;DHT22;8353;47.856;12.344;2022-07-29T10:57:28;32.20;97.30
16485;DHT22;8353;47.856;12.344;2022-07-29T11:00:25;32.30;98.80
16485;DHT22;8353;47.856;12.344;2022-07-29T11:02:56;32.50;98.30
16485;DHT22;8353;47.856;12.344;2022-07-29T11:05:27;32.70;98.60
16485;DHT22;8353;47.856;12.344;2022-07-29T11:08:21;32.90;98.30
16485;DHT22;8353;47.856;12.344;2022-07-29T11:13:48;32.70;94.80
16485;DHT22;8353;47.856;12.344;2022-07-29T11:16:20;32.80;97.90
16485;DHT22;8353;47.856;12.344;2022-07-29T11:19:20;33.00;97.00
16485;DHT22;8353;47.856;12.344;2022-07-29T11:21:51;33.00;96.90
16485;DHT22;8353;47.856;12.344;2022-07-29T11:24:24;33.20;96.50
16485;DHT22;8353;47.856;12.344;2022-07-29T11:27:14;33.30;96.70
16485;DHT22;8353;47.856;12.344;2022-07-29T11:29:51;33.30;97.10
16485;DHT22;8353;47.856;12.344;2022-07-29T11:32:23;33.40;96.00
16485;DHT22;8353;47.856;12.344;2022-07-29T11:35:12;33.20;95.80
16485;DHT22;8353;47.856;12.344;2022-07-29T11:37:43;33.10;96.30
16485;DHT22;8353;47.856;12.344;2022-07-29T11:40:16;33.40;96.90
16485;DHT22;8353;47.856;12.344;2022-07-29T11:42:49;33.20;94.20
16485;DHT22;8353;47.856;12.344;2022-07-29T11:45:23;33.40;96.30
16485;DHT22;8353;47.856;12.344;2022-07-29T11:47:58;33.10;97.20
16485;DHT22;8353;47.856;12.344;2022-07-29T11:50:32;33.20;95.60
16485;DHT22;8353;47.856;12.344;2022-07-29T11:53:09;33.50;96.50
16485;DHT22;8353;47.856;12.344;2022-07-29T11:55:40;33.80;94.10
16485;DHT22;8353;47.856;12.344;2022-07-29T11:58:10;33.80;93.40
16485;DHT22;8353;47.856;12.344;2022-07-29T12:00:46;33.90;93.60
16485;DHT22;8353;47.856;12.344;2022-07-29T12:03:23;34.00;94.00
16485;DHT22;8353;47.856;12.344;2022-07-29T12:05:54;32.90;96.00
16485;DHT22;8353;47.856;12.344;2022-07-29T12:08:25;33.40;96.10
16485;DHT22;8353;47.856;12.344;2022-07-29T12:10:56;33.00;93.30
16485;DHT22;8353;47.856;12.344;2022-07-29T12:13:38;31.60;94.10
16485;DHT22;8353;47.856;12.344;2022-07-29T12:16:12;31.40;96.30
16485;DHT22;8353;47.856;12.344;2022-07-29T12:18:54;30.90;96.60
16485;DHT22;8353;47.856;12.344;2022-07-29T12:21:25;30.80;95.70
16485;DHT22;8353;47.856;12.344;2022-07-29T12:23:57;31.40;95.90
16485;DHT22;8353;47.856;12.344;2022-07-29T12:26:28;31.90;97.70
16485;DHT22;8353;47.856;12.344;2022-07-29T12:28:58;32.70;97.60
16485;DHT22;8353;47.856;12.344;2022-07-29T12:31:35;33.60;93.40
16485;DHT22;8353;47.856;12.344;2022-07-29T12:34:05;33.60;93.50
16485;DHT22;8353;47.856;12.344;2022-07-29T12:36:36;33.80;93.30
16485;DHT22;8353;47.856;12.344;2022-07-29T12:39:07;34.00;93.70
16485;DHT22;8353;47.856;12.344;2022-07-29T12:41:38;33.70;94.60
16485;DHT22;8353;47.856;12.344;2022-07-29T12:44:09;34.50;92.70
16485;DHT22;8353;47.856;12.344;2022-07-29T12:46:41;34.60;94.50
16485;DHT22;8353;47.856;12.344;2022-07-29T12:49:21;34.20;92.60
16485;DHT22;8353;47.856;12.344;2022-07-29T12:51:52;34.10;94.80
16485;DHT22;8353;47.856;12.344;2022-07-29T12:54:22;35.00;94.20
16485;DHT22;8353;47.856;12.344;2022-07-29T12:56:58;35.20;92.10
16485;DHT22;8353;47.856;12.344;2022-07-29T12:59:30;34.20;92.60
16485;DHT22;8353;47.856;12.344;2022-07-29T13:02:02;34.00;95.00
16485;DHT22;8353;47.856;12.344;2022-07-29T13:04:33;34.80;94.40
16485;DHT22;8353;47.856;12.344;2022-07-29T13:07:06;35.00;92.00
16485;DHT22;8353;47.856;12.344;2022-07-29T13:09:39;34.90;93.60
16485;DHT22;8353;47.856;12.344;2022-07-29T13:12:12;34.60;93.90
16485;DHT22;8353;47.856;12.344;2022-07-29T13:14:44;34.50;92.50
16485;DHT22;8353;47.856;12.344;2022-07-29T13:17:17;33.50;93.00
16485;DHT22;8353;47.856;12.344;2022-07-29T13:19:50;32.20;93.50
16485;DHT22;8353;47.856;12.344;2022-07-29T13:22:23;33.10;95.50
16485;DHT22;8353;47.856;12.344;2022-07-29T13:24:55;33.30;95.00
16485;DHT22;8353;47.856;12.344;2022-07-29T13:27:29;32.30;92.00
16485;DHT22;8353;47.856;12.344;2022-07-29T13:30:03;32.70;92.30
16485;DHT22;8353;47.856;12.344;2022-07-29T13:32:36;33.30;95.30
16485;DHT22;8353;47.856;12.344;2022-07-29T13:35:08;33.50;94.60
16485;DHT22;8353;47.856;12.344;2022-07-29T13:37:39;34.10;93.90
16485;DHT22;8353;47.856;12.344;2022-07-29T13:40:10;34.30;92.60
16485;DHT22;8353;47.856;12.344;2022-07-29T13:42:42;34.40;91.60
16485;DHT22;8353;47.856;12.344;2022-07-29T13:45:12;34.30;92.50
16485;DHT22;8353;47.856;12.344;2022-07-29T13:47:44;33.60;91.10
16485;DHT22;8353;47.856;12.344;2022-07-29T13:50:15;33.70;94.00
16485;DHT22;8353;47.856;12.344;2022-07-29T13:52:46;34.10;93.90
16485;DHT22;8353;47.856;12.344;2022-07-29T13:55:17;34.50;93.10
16485;DHT22;8353;47.856;12.344;2022-07-29T13:57:48;34.60;92.50
16485;DHT22;8353;47.856;12.344;2022-07-29T14:00:18;34.70;91.90
16485;DHT22;8353;47.856;12.344;2022-07-29T14:02:50;34.80;91.50
16485;DHT22;8353;47.856;12.344;2022-07-29T14:05:20;34.60;89.40
16485;DHT22;8353;47.856;12.344;2022-07-29T14:07:51;34.10;90.10
16485;DHT22;8353;47.856;12.344;2022-07-29T14:10:23;33.40;91.40
16485;DHT22;8353;47.856;12.344;2022-07-29T14:12:53;33.80;93.10
16485;DHT22;8353;47.856;12.344;2022-07-29T14:15:24;33.70;91.10
16485;DHT22;8353;47.856;12.344;2022-07-29T14:17:56;33.90;92.50
16485;DHT22;8353;47.856;12.344;2022-07-29T14:20:27;33.90;92.60
16485;DHT22;8353;47.856;12.344;2022-07-29T14:22:58;33.00;91.20
16485;DHT22;8353;47.856;12.344;2022-07-29T14:25:28;33.60;92.00
16485;DHT22;8353;47.856;12.344;2022-07-29T14:27:59;34.10;90.90
16485;DHT22;8353;47.856;12.344;2022-07-29T14:30:29;34.50;90.50
16485;DHT22;8353;47.856;12.344;2022-07-29T14:33:01;34.10;90.50
16485;DHT22;8353;47.856;12.344;2022-07-29T14:35:33;34.50;90.20
16485;DHT22;8353;47.856;12.344;2022-07-29T14:38:04;34.50;89.80
16485;DHT22;8353;47.856;12.344;2022-07-29T14:40:35;34.40;89.50
16485;DHT22;8353;47.856;12.344;2022-07-29T14:43:05;34.20;89.70
16485;DHT22;8353;47.856;12.344;2022-07-29T14:45:35;34.10;89.60
16485;DHT22;8353;47.856;12.344;2022-07-29T14:48:07;34.10;89.20
16485;DHT22;8353;47.856;12.344;2022-07-29T14:50:38;34.10;88.80
16485;DHT22;8353;47.856;12.344;2022-07-29T14:53:08;33.80;89.50
16485;DHT22;8353;47.856;12.344;2022-07-29T14:55:41;33.90;90.80
16485;DHT22;8353;47.856;12.344;2022-07-29T14:58:12;33.90;89.30
16485;DHT22;8353;47.856;12.344;2022-07-29T15:00:43;33.80;89.60
16485;DHT22;8353;47.856;12.344;2022-07-29T15:03:14;33.50;90.70
16485;DHT22;8353;47.856;12.344;2022-07-29T15:05:45;33.90;88.70
16485;DHT22;8353;47.856;12.344;2022-07-29T15:08:16;34.10;90.50
16485;DHT22;8353;47.856;12.344;2022-07-29T15:10:46;34.00;90.60
16485;DHT22;8353;47.856;12.344;2022-07-29T15:13:17;34.10;90.60
16485;DHT22;8353;47.856;12.344;2022-07-29T15:15:48;33.50;89.50
16485;DHT22;8353;47.856;12.344;2022-07-29T15:18:20;33.50;90.60
16485;DHT22;8353;47.856;12.344;2022-07-29T15:20:51;33.50;89.30
16485;DHT22;8353;47.856;12.344;2022-07-29T15:23:22;33.10;89.30
16485;DHT22;8353;47.856;12.344;2022-07-29T15:25:53;33.30;90.40
16485;DHT22;8353;47.856;12.344;2022-07-29T15:28:23;33.30;90.70
16485;DHT22;8353;47.856;12.344;2022-07-29T15:30:55;32.90;90.80
16485;DHT22;8353;47.856;12.344;2022-07-29T15:33:27;33.00;90.50
16485;DHT22;8353;47.856;12.344;2022-07-29T15:35:57;33.00;91.00
16485;DHT22;8353;47.856;12.344;2022-07-29T15:38:28;33.00;91.10
16485;DHT22;8353;47.856;12.344;2022-07-29T15:40:58;32.90;90.50
16485;DHT22;8353;47.856;12.344;2022-07-29T15:43:29;32.50;90.30
16485;DHT22;8353;47.856;12.344;2022-07-29T15:45:59;32.60;91.00
16485;DHT22;8353;47.856;12.344;2022-07-29T15:48:48;32.60;90.80
16485;DHT22;8353;47.856;12.344;2022-07-29T15:51:19;32.50;91.50
16485;DHT22;8353;47.856;12.344;2022-07-29T15:53:50;32.30;91.30
16485;DHT22;8353;47.856;12.344;2022-07-29T15:56:20;32.30;91.50
16485;DHT22;8353;47.856;12.344;2022-07-29T15:58:51;32.00;91.20
16485;DHT22;8353;47.856;12.344;2022-07-29T16:01:22;31.90;92.10
16485;DHT22;8353;47.856;12.344;2022-07-29T16:03:54;31.90;91.80
16485;DHT22;8353;47.856;12.344;2022-07-29T16:06:24;31.60;91.70
16485;DHT22;8353;47.856;12.344;2022-07-29T16:08:55;31.40;92.10
16485;DHT22;8353;47.856;12.344;2022-07-29T16:11:27;31.30;92.10